sensor_id;sensor_type;location;lat;lon;timestamp;temperature;humidity
76878;DHT22;65843;50.692;12.844;2023-01-29T00:00:20;17.50;59.60
76878;DHT22;65843;50.692;12.844;2023-01-29T00:01:21;17.50;59.70
76878;DHT22;65843;50.692;12.844;2023-01-29T00:02:22;17.50;59.30
76878;DHT22;65843;50.692;12.844;2023-01-29T00:03:23;17.50;59.10
76878;DHT22;65843;50.692;12.844;2023-01-29T00:04:23;17.50;59.00
76878;DHT22;65843;50.692;12.844;2023-01-29T00:05:24;17.50;59.00
76878;DHT22;65843;50.692;12.844;2023-01-29T00:06:25;17.50;58.90
76878;DHT22;65843;50.692;12.844;2023-01-29T00:07:26;17.50;59.20
76878;DHT22;65843;50.692;12.844;2023-01-29T00:08:27;17.50;59.00
76878;DHT22;65843;50.692;12.844;2023-01-29T00:09:28;17.50;59.30
76878;DHT22;65843;50.692;12.844;2023-01-29T00:10:29;17.50;59.20
76878;DHT22;65843;50.692;12.844;2023-01-29T00:11:29;17.50;59.20
76878;DHT22;65843;50.692;12.844;2023-01-29T00:12:31;17.50;58.90
76878;DHT22;65843;50.692;12.844;2023-01-29T00:13:32;17.50;59.00
76878;DHT22;65843;50.692;12.844;2023-01-29T00:14:35;17.50;59.30
76878;DHT22;65843;50.692;12.844;2023-01-29T00:15:36;17.50;59.30
76878;DHT22;65843;50.692;12.844;2023-01-29T00:16:37;17.50;59.40
76878;DHT22;65843;50.692;12.844;2023-01-29T00:17:38;17.50;59.30
76878;DHT22;65843;50.692;12.844;2023-01-29T00:18:39;17.50;58.90
76878;DHT22;65843;50.692;12.844;2023-01-29T00:19:40;17.50;58.90
76878;DHT22;65843;50.692;12.844;2023-01-29T00:20:42;17.50;59.20
76878;DHT22;65843;50.692;12.844;2023-01-29T00:21:43;17.50;59.20
76878;DHT22;65843;50.692;12.844;2023-01-29T00:22:43;17.50;59.20
76878;DHT22;65843;50.692;12.844;2023-01-29T00:23:45;17.60;59.40
76878;DHT22;65843;50.692;12.844;2023-01-29T00:24:45;17.50;58.80
76878;DHT22;65843;50.692;12.844;2023-01-29T00:25:46;17.60;58.80
76878;DHT22;65843;50.692;12.844;2023-01-29T00:26:47;17.60;59.40
76878;DHT22;65843;50.692;12.844;2023-01-29T00:27:50;17.60;59.00
76878;DHT22;65843;50.692;12.844;2023-01-29T00:28:51;17.60;58.90
76878;DHT22;65843;50.692;12.844;2023-01-29T00:29:51;17.60;59.10
76878;DHT22;65843;50.692;12.844;2023-01-29T00:31:09;17.60;59.20
76878;DHT22;65843;50.692;12.844;2023-01-29T00:32:10;17.60;59.20
76878;DHT22;65843;50.692;12.844;2023-01-29T00:33:11;17.60;59.30
76878;DHT22;65843;50.692;12.844;2023-01-29T00:34:13;17.60;59.40
76878;DHT22;65843;50.692;12.844;2023-01-29T00:35:13;17.60;59.30
76878;DHT22;65843;50.692;12.844;2023-01-29T00:36:15;17.60;59.00
76878;DHT22;65843;50.692;12.844;2023-01-29T00:37:16;17.60;59.00
76878;DHT22;65843;50.692;12.844;2023-01-29T00:38:17;17.60;59.00
76878;DHT22;65843;50.692;12.844;2023-01-29T00:39:18;17.60;59.10
76878;DHT22;65843;50.692;12.844;2023-01-29T00:40:25;17.60;59.00
76878;DHT22;65843;50.692;12.844;2023-01-29T00:41:26;17.60;59.10
76878;DHT22;65843;50.692;12.844;2023-01-29T00:42:46;17.60;59.10
76878;DHT22;65843;50.692;12.844;2023-01-29T00:44:06;17.60;59.20
76878;DHT22;65843;50.692;12.844;2023-01-29T00:45:25;17.60;59.10
76878;DHT22;65843;50.692;12.844;2023-01-29T00:46:26;17.60;59.40
76878;DHT22;65843;50.692;12.844;2023-01-29T00:47:27;17.60;59.20
76878;DHT22;65843;50.692;12.844;2023-01-29T00:48:34;17.60;59.30
76878;DHT22;65843;50.692;12.844;2023-01-29T00:49:35;17.60;59.50
76878;DHT22;65843;50.692;12.844;2023-01-29T00:50:36;17.60;59.00
76878;DHT22;65843;50.692;12.844;2023-01-29T00:51:37;17.60;59.40
76878;DHT22;65843;50.692;12.844;2023-01-29T00:52:38;17.60;59.40
76878;DHT22;65843;50.692;12.844;2023-01-29T00:53:40;17.60;59.50
76878;DHT22;65843;50.692;12.844;2023-01-29T00:54:41;17.60;59.50
76878;DHT22;65843;50.692;12.844;2023-01-29T00:55:43;17.60;59.40
76878;DHT22;65843;50.692;12.844;2023-01-29T00:56:44;17.60;59.60
76878;DHT22;65843;50.692;12.844;2023-01-29T00:57:45;17.60;59.50
76878;DHT22;65843;50.692;12.844;2023-01-29T00:58:46;17.60;59.50
76878;DHT22;65843;50.692;12.844;2023-01-29T00:59:46;17.60;59.40
76878;DHT22;65843;50.692;12.844;2023-01-29T01:00:47;17.60;59.60
76878;DHT22;65843;50.692;12.844;2023-01-29T01:01:48;17.60;59.50
76878;DHT22;65843;50.692;12.844;2023-01-29T01:03:08;17.70;59.40
76878;DHT22;65843;50.692;12.844;2023-01-29T01:04:10;17.60;59.20
76878;DHT22;65843;50.692;12.844;2023-01-29T01:05:11;17.70;59.50
76878;DHT22;65843;50.692;12.844;2023-01-29T01:06:18;17.70;59.50
76878;DHT22;65843;50.692;12.844;2023-01-29T01:07:19;17.60;59.60
76878;DHT22;65843;50.692;12.844;2023-01-29T01:08:20;17.70;59.70
76878;DHT22;65843;50.692;12.844;2023-01-29T01:09:40;17.70;59.60
76878;DHT22;65843;50.692;12.844;2023-01-29T01:11:00;17.70;59.40
76878;DHT22;65843;50.692;12.844;2023-01-29T01:12:02;17.70;59.40
76878;DHT22;65843;50.692;12.844;2023-01-29T01:13:04;17.70;59.30
76878;DHT22;65843;50.692;12.844;2023-01-29T01:14:05;17.70;59.30
76878;DHT22;65843;50.692;12.844;2023-01-29T01:15:06;17.70;59.20
76878;DHT22;65843;50.692;12.844;2023-01-29T01:16:08;17.70;59.40
76878;DHT22;65843;50.692;12.844;2023-01-29T01:17:09;17.70;59.50
76878;DHT22;65843;50.692;12.844;2023-01-29T01:18:09;17.70;59.00
76878;DHT22;65843;50.692;12.844;2023-01-29T01:19:10;17.70;59.40
76878;DHT22;65843;50.692;12.844;2023-01-29T01:20:13;17.70;59.20
76878;DHT22;65843;50.692;12.844;2023-01-29T01:21:14;17.70;59.30
76878;DHT22;65843;50.692;12.844;2023-01-29T01:22:15;17.70;59.40
76878;DHT22;65843;50.692;12.844;2023-01-29T01:23:18;17.70;59.40
76878;DHT22;65843;50.692;12.844;2023-01-29T01:24:19;17.70;59.60
76878;DHT22;65843;50.692;12.844;2023-01-29T01:25:21;17.70;59.60
76878;DHT22;65843;50.692;12.844;2023-01-29T01:26:22;17.70;59.60
76878;DHT22;65843;50.692;12.844;2023-01-29T01:27:23;17.70;59.40
76878;DHT22;65843;50.692;12.844;2023-01-29T01:28:25;17.70;59.40
76878;DHT22;65843;50.692;12.844;2023-01-29T01:29:26;17.70;59.30
76878;DHT22;65843;50.692;12.844;2023-01-29T01:30:27;17.70;59.60
76878;DHT22;65843;50.692;12.844;2023-01-29T01:31:28;17.70;59.30
76878;DHT22;65843;50.692;12.844;2023-01-29T01:32:29;17.60;59.30
76878;DHT22;65843;50.692;12.844;2023-01-29T01:33:30;17.70;59.30
76878;DHT22;65843;50.692;12.844;2023-01-29T01:34:30;17.70;59.20
76878;DHT22;65843;50.692;12.844;2023-01-29T01:35:31;17.70;59.30
76878;DHT22;65843;50.692;12.844;2023-01-29T01:36:32;17.70;59.50
76878;DHT22;65843;50.692;12.844;2023-01-29T01:37:33;17.70;59.20
76878;DHT22;65843;50.692;12.844;2023-01-29T01:38:37;17.80;59.40
76878;DHT22;65843;50.692;12.844;2023-01-29T01:39:44;17.80;59.40
76878;DHT22;65843;50.692;12.844;2023-01-29T01:40:48;17.80;59.50
76878;DHT22;65843;50.692;12.844;2023-01-29T01:41:49;17.80;59.70
76878;DHT22;65843;50.692;12.844;2023-01-29T01:43:00;17.80;59.90
76878;DHT22;65843;50.692;12.844;2023-01-29T01:44:02;17.80;59.70
76878;DHT22;65843;50.692;12.844;2023-01-29T01:45:04;17.80;59.60
76878;DHT22;65843;50.692;12.844;2023-01-29T01:46:07;17.80;59.30
76878;DHT22;65843;50.692;12.844;2023-01-29T01:47:09;17.80;59.30
76878;DHT22;65843;50.692;12.844;2023-01-29T01:48:16;17.80;59.30
76878;DHT22;65843;50.692;12.844;2023-01-29T01:49:18;17.80;59.20
76878;DHT22;65843;50.692;12.844;2023-01-29T01:50:40;17.80;59.70
76878;DHT22;65843;50.692;12.844;2023-01-29T01:51:44;17.80;59.50
76878;DHT22;65843;50.692;12.844;2023-01-29T01:52:47;17.80;59.70
76878;DHT22;65843;50.692;12.844;2023-01-29T01:53:51;17.80;59.60
76878;DHT22;65843;50.692;12.844;2023-01-29T01:54:54;17.80;59.50
76878;DHT22;65843;50.692;12.844;2023-01-29T01:55:56;17.80;59.60
76878;DHT22;65843;50.692;12.844;2023-01-29T01:57:03;17.80;59.40
76878;DHT22;65843;50.692;12.844;2023-01-29T01:58:10;17.80;59.50
76878;DHT22;65843;50.692;12.844;2023-01-29T01:59:13;17.80;59.70
76878;DHT22;65843;50.692;12.844;2023-01-29T02:00:15;17.80;59.60
76878;DHT22;65843;50.692;12.844;2023-01-29T02:01:17;17.80;59.20
76878;DHT22;65843;50.692;12.844;2023-01-29T02:02:18;17.80;59.70
76878;DHT22;65843;50.692;12.844;2023-01-29T02:03:45;17.70;59.60
76878;DHT22;65843;50.692;12.844;2023-01-29T02:05:06;17.70;59.70
76878;DHT22;65843;50.692;12.844;2023-01-29T02:06:25;17.70;59.70
76878;DHT22;65843;50.692;12.844;2023-01-29T02:07:45;17.70;59.90
76878;DHT22;65843;50.692;12.844;2023-01-29T02:09:10;17.70;59.80
76878;DHT22;65843;50.692;12.844;2023-01-29T02:10:34;17.70;59.60
76878;DHT22;65843;50.692;12.844;2023-01-29T02:11:37;17.80;60.20
76878;DHT22;65843;50.692;12.844;2023-01-29T02:12:38;17.80;59.80
76878;DHT22;65843;50.692;12.844;2023-01-29T02:13:40;17.80;59.80
76878;DHT22;65843;50.692;12.844;2023-01-29T02:14:42;17.80;60.00
76878;DHT22;65843;50.692;12.844;2023-01-29T02:15:44;17.80;60.10
76878;DHT22;65843;50.692;12.844;2023-01-29T02:16:49;17.80;60.20
76878;DHT22;65843;50.692;12.844;2023-01-29T02:17:50;17.80;60.00
76878;DHT22;65843;50.692;12.844;2023-01-29T02:18:51;17.80;59.90
76878;DHT22;65843;50.692;12.844;2023-01-29T02:20:11;17.80;60.20
76878;DHT22;65843;50.692;12.844;2023-01-29T02:21:28;17.80;60.00
76878;DHT22;65843;50.692;12.844;2023-01-29T02:22:45;17.80;59.80
76878;DHT22;65843;50.692;12.844;2023-01-29T02:26:37;17.80;60.20
76878;DHT22;65843;50.692;12.844;2023-01-29T02:29:01;17.70;60.00
76878;DHT22;65843;50.692;12.844;2023-01-29T02:30:32;17.70;60.10
76878;DHT22;65843;50.692;12.844;2023-01-29T02:31:38;17.70;60.20
76878;DHT22;65843;50.692;12.844;2023-01-29T02:32:41;17.70;60.50
76878;DHT22;65843;50.692;12.844;2023-01-29T02:35:13;17.70;60.50
76878;DHT22;65843;50.692;12.844;2023-01-29T02:37:48;17.80;60.60
76878;DHT22;65843;50.692;12.844;2023-01-29T02:40:11;17.80;60.60
76878;DHT22;65843;50.692;12.844;2023-01-29T02:41:34;17.80;60.60
76878;DHT22;65843;50.692;12.844;2023-01-29T02:42:43;17.80;60.60
76878;DHT22;65843;50.692;12.844;2023-01-29T02:43:48;17.80;60.50
76878;DHT22;65843;50.692;12.844;2023-01-29T02:45:13;17.80;60.50
76878;DHT22;65843;50.692;12.844;2023-01-29T02:46:17;17.80;60.70
76878;DHT22;65843;50.692;12.844;2023-01-29T02:48:36;17.70;60.40
76878;DHT22;65843;50.692;12.844;2023-01-29T02:50:59;17.80;60.50
76878;DHT22;65843;50.692;12.844;2023-01-29T02:53:08;17.80;60.30
76878;DHT22;65843;50.692;12.844;2023-01-29T02:54:14;17.70;60.00
76878;DHT22;65843;50.692;12.844;2023-01-29T02:55:17;17.80;60.10
76878;DHT22;65843;50.692;12.844;2023-01-29T02:56:23;17.70;60.00
76878;DHT22;65843;50.692;12.844;2023-01-29T02:57:26;17.80;60.10
76878;DHT22;65843;50.692;12.844;2023-01-29T02:58:30;17.80;60.20
76878;DHT22;65843;50.692;12.844;2023-01-29T02:59:37;17.80;60.00
76878;DHT22;65843;50.692;12.844;2023-01-29T03:00:40;17.80;59.70
76878;DHT22;65843;50.692;12.844;2023-01-29T03:01:44;17.70;59.90
76878;DHT22;65843;50.692;12.844;2023-01-29T03:02:48;17.70;59.90
76878;DHT22;65843;50.692;12.844;2023-01-29T03:03:52;17.70;60.30
76878;DHT22;65843;50.692;12.844;2023-01-29T03:04:59;17.70;59.90
76878;DHT22;65843;50.692;12.844;2023-01-29T03:06:01;17.70;59.80
76878;DHT22;65843;50.692;12.844;2023-01-29T03:07:09;17.70;60.10
76878;DHT22;65843;50.692;12.844;2023-01-29T03:08:40;17.70;59.70
76878;DHT22;65843;50.692;12.844;2023-01-29T03:09:46;17.70;60.40
76878;DHT22;65843;50.692;12.844;2023-01-29T03:10:58;17.70;60.00
76878;DHT22;65843;50.692;12.844;2023-01-29T03:12:04;17.70;60.00
76878;DHT22;65843;50.692;12.844;2023-01-29T03:14:32;17.70;60.60
76878;DHT22;65843;50.692;12.844;2023-01-29T03:15:58;17.80;60.60
76878;DHT22;65843;50.692;12.844;2023-01-29T03:17:01;17.80;60.90
76878;DHT22;65843;50.692;12.844;2023-01-29T03:18:05;17.80;60.70
76878;DHT22;65843;50.692;12.844;2023-01-29T03:20:12;17.80;60.60
76878;DHT22;65843;50.692;12.844;2023-01-29T03:21:17;17.80;60.80
76878;DHT22;65843;50.692;12.844;2023-01-29T03:22:37;17.80;60.90
76878;DHT22;65843;50.692;12.844;2023-01-29T03:23:39;17.80;60.90
76878;DHT22;65843;50.692;12.844;2023-01-29T03:24:59;17.80;60.70
76878;DHT22;65843;50.692;12.844;2023-01-29T03:26:20;17.80;60.80
76878;DHT22;65843;50.692;12.844;2023-01-29T03:27:54;17.80;60.60
76878;DHT22;65843;50.692;12.844;2023-01-29T03:29:14;17.80;60.80
76878;DHT22;65843;50.692;12.844;2023-01-29T03:30:34;17.80;60.70
76878;DHT22;65843;50.692;12.844;2023-01-29T03:31:54;17.80;60.90
76878;DHT22;65843;50.692;12.844;2023-01-29T03:33:08;17.80;60.90
76878;DHT22;65843;50.692;12.844;2023-01-29T03:34:29;17.80;61.00
76878;DHT22;65843;50.692;12.844;2023-01-29T03:35:35;17.80;61.00
76878;DHT22;65843;50.692;12.844;2023-01-29T03:37:40;17.80;60.90
76878;DHT22;65843;50.692;12.844;2023-01-29T03:38:09;17.80;60.80
76878;DHT22;65843;50.692;12.844;2023-01-29T03:39:11;17.80;60.80
76878;DHT22;65843;50.692;12.844;2023-01-29T03:40:12;17.80;61.00
76878;DHT22;65843;50.692;12.844;2023-01-29T03:43:35;17.80;60.90
76878;DHT22;65843;50.692;12.844;2023-01-29T03:45:49;17.80;60.90
76878;DHT22;65843;50.692;12.844;2023-01-29T03:51:34;17.80;60.50
76878;DHT22;65843;50.692;12.844;2023-01-29T03:52:39;17.80;60.80
76878;DHT22;65843;50.692;12.844;2023-01-29T03:53:55;17.80;60.80
76878;DHT22;65843;50.692;12.844;2023-01-29T03:57:34;17.90;60.70
76878;DHT22;65843;50.692;12.844;2023-01-29T03:58:41;17.80;60.50
76878;DHT22;65843;50.692;12.844;2023-01-29T03:59:52;17.80;60.50
76878;DHT22;65843;50.692;12.844;2023-01-29T04:00:56;17.80;60.40
76878;DHT22;65843;50.692;12.844;2023-01-29T04:01:59;17.80;60.70
76878;DHT22;65843;50.692;12.844;2023-01-29T04:03:07;17.80;60.50
76878;DHT22;65843;50.692;12.844;2023-01-29T04:04:13;17.80;60.70
76878;DHT22;65843;50.692;12.844;2023-01-29T04:05:18;17.80;60.70
76878;DHT22;65843;50.692;12.844;2023-01-29T04:06:24;17.80;60.60
76878;DHT22;65843;50.692;12.844;2023-01-29T04:07:27;17.80;60.50
76878;DHT22;65843;50.692;12.844;2023-01-29T04:08:33;17.80;60.80
76878;DHT22;65843;50.692;12.844;2023-01-29T04:09:45;17.80;60.70
76878;DHT22;65843;50.692;12.844;2023-01-29T04:10:48;17.80;60.70
76878;DHT22;65843;50.692;12.844;2023-01-29T04:12:01;17.80;60.70
76878;DHT22;65843;50.692;12.844;2023-01-29T04:13:08;17.80;60.70
76878;DHT22;65843;50.692;12.844;2023-01-29T04:14:09;17.80;60.70
76878;DHT22;65843;50.692;12.844;2023-01-29T04:15:12;17.80;60.80
76878;DHT22;65843;50.692;12.844;2023-01-29T04:16:17;17.80;60.70
76878;DHT22;65843;50.692;12.844;2023-01-29T04:17:21;17.80;60.90
76878;DHT22;65843;50.692;12.844;2023-01-29T04:18:23;17.80;60.40
76878;DHT22;65843;50.692;12.844;2023-01-29T04:19:24;17.80;60.30
76878;DHT22;65843;50.692;12.844;2023-01-29T04:20:25;17.90;60.60
76878;DHT22;65843;50.692;12.844;2023-01-29T04:21:26;17.90;60.40
76878;DHT22;65843;50.692;12.844;2023-01-29T04:22:34;17.90;60.40
76878;DHT22;65843;50.692;12.844;2023-01-29T04:23:36;17.80;60.50
76878;DHT22;65843;50.692;12.844;2023-01-29T04:24:36;17.80;60.50
76878;DHT22;65843;50.692;12.844;2023-01-29T04:25:42;17.80;60.30
76878;DHT22;65843;50.692;12.844;2023-01-29T04:26:59;17.80;60.50
76878;DHT22;65843;50.692;12.844;2023-01-29T04:29:25;17.80;60.40
76878;DHT22;65843;50.692;12.844;2023-01-29T04:31:31;17.80;60.60
76878;DHT22;65843;50.692;12.844;2023-01-29T04:38:18;17.80;60.50
76878;DHT22;65843;50.692;12.844;2023-01-29T04:40:56;17.90;60.70
76878;DHT22;65843;50.692;12.844;2023-01-29T04:42:10;17.90;60.80
76878;DHT22;65843;50.692;12.844;2023-01-29T04:43:26;17.90;60.80
76878;DHT22;65843;50.692;12.844;2023-01-29T04:47:41;17.90;60.70
76878;DHT22;65843;50.692;12.844;2023-01-29T04:49:03;17.90;60.20
76878;DHT22;65843;50.692;12.844;2023-01-29T04:51:18;17.80;60.50
76878;DHT22;65843;50.692;12.844;2023-01-29T04:52:23;17.80;60.80
76878;DHT22;65843;50.692;12.844;2023-01-29T04:53:36;17.80;60.60
76878;DHT22;65843;50.692;12.844;2023-01-29T04:54:49;17.80;60.50
76878;DHT22;65843;50.692;12.844;2023-01-29T04:55:57;17.80;60.30
76878;DHT22;65843;50.692;12.844;2023-01-29T04:57:08;17.80;60.50
76878;DHT22;65843;50.692;12.844;2023-01-29T04:59:31;17.80;60.50
76878;DHT22;65843;50.692;12.844;2023-01-29T05:00:34;17.80;60.50
76878;DHT22;65843;50.692;12.844;2023-01-29T05:01:36;17.80;60.50
76878;DHT22;65843;50.692;12.844;2023-01-29T05:02:39;17.80;60.80
76878;DHT22;65843;50.692;12.844;2023-01-29T05:03:41;17.80;61.30
76878;DHT22;65843;50.692;12.844;2023-01-29T05:04:42;17.80;60.80
76878;DHT22;65843;50.692;12.844;2023-01-29T05:05:45;17.80;60.20
76878;DHT22;65843;50.692;12.844;2023-01-29T05:06:47;17.90;59.70
76878;DHT22;65843;50.692;12.844;2023-01-29T05:07:49;17.90;60.10
76878;DHT22;65843;50.692;12.844;2023-01-29T05:08:51;17.80;59.90
76878;DHT22;65843;50.692;12.844;2023-01-29T05:09:52;17.80;59.60
76878;DHT22;65843;50.692;12.844;2023-01-29T05:10:53;17.90;59.80
76878;DHT22;65843;50.692;12.844;2023-01-29T05:11:54;17.80;59.90
76878;DHT22;65843;50.692;12.844;2023-01-29T05:12:59;17.80;59.80
76878;DHT22;65843;50.692;12.844;2023-01-29T05:14:01;17.80;59.70
76878;DHT22;65843;50.692;12.844;2023-01-29T05:15:04;17.80;59.70
76878;DHT22;65843;50.692;12.844;2023-01-29T05:16:11;17.80;59.60
76878;DHT22;65843;50.692;12.844;2023-01-29T05:17:15;17.80;59.50
76878;DHT22;65843;50.692;12.844;2023-01-29T05:18:17;17.70;59.70
76878;DHT22;65843;50.692;12.844;2023-01-29T05:19:18;17.60;59.70
76878;DHT22;65843;50.692;12.844;2023-01-29T05:20:19;17.60;59.70
76878;DHT22;65843;50.692;12.844;2023-01-29T05:21:20;17.60;60.00
76878;DHT22;65843;50.692;12.844;2023-01-29T05:22:22;17.60;59.80
76878;DHT22;65843;50.692;12.844;2023-01-29T05:23:23;17.60;59.70
76878;DHT22;65843;50.692;12.844;2023-01-29T05:24:25;17.60;59.90
76878;DHT22;65843;50.692;12.844;2023-01-29T05:25:27;17.60;59.90
76878;DHT22;65843;50.692;12.844;2023-01-29T05:26:28;17.60;59.70
76878;DHT22;65843;50.692;12.844;2023-01-29T05:27:48;17.60;59.70
76878;DHT22;65843;50.692;12.844;2023-01-29T05:29:11;17.60;59.70
76878;DHT22;65843;50.692;12.844;2023-01-29T05:30:12;17.50;59.60
76878;DHT22;65843;50.692;12.844;2023-01-29T05:31:13;17.50;59.70
76878;DHT22;65843;50.692;12.844;2023-01-29T05:32:14;17.50;59.60
76878;DHT22;65843;50.692;12.844;2023-01-29T05:33:17;17.50;59.60
76878;DHT22;65843;50.692;12.844;2023-01-29T05:34:18;17.50;59.50
76878;DHT22;65843;50.692;12.844;2023-01-29T05:35:19;17.50;59.40
76878;DHT22;65843;50.692;12.844;2023-01-29T05:36:20;17.50;59.40
76878;DHT22;65843;50.692;12.844;2023-01-29T05:37:21;17.50;59.40
76878;DHT22;65843;50.692;12.844;2023-01-29T05:38:22;17.50;59.30
76878;DHT22;65843;50.692;12.844;2023-01-29T05:39:22;17.50;59.30
76878;DHT22;65843;50.692;12.844;2023-01-29T05:40:23;17.50;59.20
76878;DHT22;65843;50.692;12.844;2023-01-29T05:41:24;17.50;59.30
76878;DHT22;65843;50.692;12.844;2023-01-29T05:42:25;17.50;59.30
76878;DHT22;65843;50.692;12.844;2023-01-29T05:43:26;17.50;59.30
76878;DHT22;65843;50.692;12.844;2023-01-29T05:44:27;17.50;59.30
76878;DHT22;65843;50.692;12.844;2023-01-29T05:45:28;17.50;59.20
76878;DHT22;65843;50.692;12.844;2023-01-29T05:46:28;17.50;59.20
76878;DHT22;65843;50.692;12.844;2023-01-29T05:47:29;17.50;59.80
76878;DHT22;65843;50.692;12.844;2023-01-29T05:48:30;17.50;60.30
76878;DHT22;65843;50.692;12.844;2023-01-29T05:49:32;17.50;59.50
76878;DHT22;65843;50.692;12.844;2023-01-29T05:50:32;17.50;59.40
76878;DHT22;65843;50.692;12.844;2023-01-29T05:51:33;17.50;59.50
76878;DHT22;65843;50.692;12.844;2023-01-29T05:52:34;17.50;59.30
76878;DHT22;65843;50.692;12.844;2023-01-29T05:53:35;17.50;59.20
76878;DHT22;65843;50.692;12.844;2023-01-29T05:54:36;17.50;59.10
76878;DHT22;65843;50.692;12.844;2023-01-29T05:55:37;17.50;59.80
76878;DHT22;65843;50.692;12.844;2023-01-29T05:56:38;17.50;59.50
76878;DHT22;65843;50.692;12.844;2023-01-29T05:57:39;17.50;59.30
76878;DHT22;65843;50.692;12.844;2023-01-29T05:58:40;17.50;59.70
76878;DHT22;65843;50.692;12.844;2023-01-29T05:59:41;17.50;59.10
76878;DHT22;65843;50.692;12.844;2023-01-29T06:00:42;17.50;59.10
76878;DHT22;65843;50.692;12.844;2023-01-29T06:01:43;17.50;59.10
76878;DHT22;65843;50.692;12.844;2023-01-29T06:02:43;17.50;59.10
76878;DHT22;65843;50.692;12.844;2023-01-29T06:03:44;17.50;59.10
76878;DHT22;65843;50.692;12.844;2023-01-29T06:04:45;17.50;59.00
76878;DHT22;65843;50.692;12.844;2023-01-29T06:05:46;17.50;59.10
76878;DHT22;65843;50.692;12.844;2023-01-29T06:06:47;17.50;60.00
76878;DHT22;65843;50.692;12.844;2023-01-29T06:07:48;17.50;59.50
76878;DHT22;65843;50.692;12.844;2023-01-29T06:08:49;17.50;59.20
76878;DHT22;65843;50.692;12.844;2023-01-29T06:09:50;17.50;58.60
76878;DHT22;65843;50.692;12.844;2023-01-29T06:10:50;17.50;58.20
76878;DHT22;65843;50.692;12.844;2023-01-29T06:11:51;17.50;57.10
76878;DHT22;65843;50.692;12.844;2023-01-29T06:12:52;17.50;56.40
76878;DHT22;65843;50.692;12.844;2023-01-29T06:13:53;17.50;55.90
76878;DHT22;65843;50.692;12.844;2023-01-29T06:14:54;17.50;55.10
76878;DHT22;65843;50.692;12.844;2023-01-29T06:15:55;17.50;54.80
76878;DHT22;65843;50.692;12.844;2023-01-29T06:16:55;17.50;54.60
76878;DHT22;65843;50.692;12.844;2023-01-29T06:17:56;17.40;54.50
76878;DHT22;65843;50.692;12.844;2023-01-29T06:18:57;17.40;54.80
76878;DHT22;65843;50.692;12.844;2023-01-29T06:19:58;17.40;54.70
76878;DHT22;65843;50.692;12.844;2023-01-29T06:21:00;17.40;54.70
76878;DHT22;65843;50.692;12.844;2023-01-29T06:22:01;17.40;54.60
76878;DHT22;65843;50.692;12.844;2023-01-29T06:23:02;17.30;54.70
76878;DHT22;65843;50.692;12.844;2023-01-29T06:24:03;17.30;55.30
76878;DHT22;65843;50.692;12.844;2023-01-29T06:25:04;17.30;55.10
76878;DHT22;65843;50.692;12.844;2023-01-29T06:26:06;17.30;55.00
76878;DHT22;65843;50.692;12.844;2023-01-29T06:27:07;17.30;55.00
76878;DHT22;65843;50.692;12.844;2023-01-29T06:28:08;17.30;55.20
76878;DHT22;65843;50.692;12.844;2023-01-29T06:29:09;17.30;55.10
76878;DHT22;65843;50.692;12.844;2023-01-29T06:30:10;17.30;55.00
76878;DHT22;65843;50.692;12.844;2023-01-29T06:31:11;17.20;55.00
76878;DHT22;65843;50.692;12.844;2023-01-29T06:32:12;17.20;55.00
76878;DHT22;65843;50.692;12.844;2023-01-29T06:33:13;17.20;55.00
76878;DHT22;65843;50.692;12.844;2023-01-29T06:34:14;17.20;55.00
76878;DHT22;65843;50.692;12.844;2023-01-29T06:35:14;17.20;55.10
76878;DHT22;65843;50.692;12.844;2023-01-29T06:36:16;17.20;55.00
76878;DHT22;65843;50.692;12.844;2023-01-29T06:37:16;17.20;54.90
76878;DHT22;65843;50.692;12.844;2023-01-29T06:38:17;17.20;55.00
76878;DHT22;65843;50.692;12.844;2023-01-29T06:39:18;17.20;54.90
76878;DHT22;65843;50.692;12.844;2023-01-29T06:40:19;17.20;54.80
76878;DHT22;65843;50.692;12.844;2023-01-29T06:41:20;17.20;54.80
76878;DHT22;65843;50.692;12.844;2023-01-29T06:42:24;17.20;55.20
76878;DHT22;65843;50.692;12.844;2023-01-29T06:43:27;17.20;55.10
76878;DHT22;65843;50.692;12.844;2023-01-29T06:44:28;17.20;54.90
76878;DHT22;65843;50.692;12.844;2023-01-29T06:45:29;17.20;54.80
76878;DHT22;65843;50.692;12.844;2023-01-29T06:46:30;17.20;55.00
76878;DHT22;65843;50.692;12.844;2023-01-29T06:47:30;17.20;55.00
76878;DHT22;65843;50.692;12.844;2023-01-29T06:48:31;17.20;55.00
76878;DHT22;65843;50.692;12.844;2023-01-29T06:49:32;17.20;54.90
76878;DHT22;65843;50.692;12.844;2023-01-29T06:50:33;17.20;54.90
76878;DHT22;65843;50.692;12.844;2023-01-29T06:51:34;17.20;54.90
76878;DHT22;65843;50.692;12.844;2023-01-29T06:52:35;17.10;54.80
76878;DHT22;65843;50.692;12.844;2023-01-29T06:53:36;17.10;54.60
76878;DHT22;65843;50.692;12.844;2023-01-29T06:54:37;17.20;54.50
76878;DHT22;65843;50.692;12.844;2023-01-29T06:55:38;17.10;54.50
76878;DHT22;65843;50.692;12.844;2023-01-29T06:56:39;17.10;54.50
76878;DHT22;65843;50.692;12.844;2023-01-29T06:57:40;17.10;54.40
76878;DHT22;65843;50.692;12.844;2023-01-29T06:58:41;17.00;54.40
76878;DHT22;65843;50.692;12.844;2023-01-29T06:59:43;17.10;54.40
76878;DHT22;65843;50.692;12.844;2023-01-29T07:00:44;17.10;54.40
76878;DHT22;65843;50.692;12.844;2023-01-29T07:01:44;17.00;54.80
76878;DHT22;65843;50.692;12.844;2023-01-29T07:02:48;17.10;55.80
76878;DHT22;65843;50.692;12.844;2023-01-29T07:03:49;17.20;55.40
76878;DHT22;65843;50.692;12.844;2023-01-29T07:04:51;17.20;55.20
76878;DHT22;65843;50.692;12.844;2023-01-29T07:05:52;17.20;54.80
76878;DHT22;65843;50.692;12.844;2023-01-29T07:06:53;17.20;54.80
76878;DHT22;65843;50.692;12.844;2023-01-29T07:07:53;17.20;54.80
76878;DHT22;65843;50.692;12.844;2023-01-29T07:08:54;17.20;54.70
76878;DHT22;65843;50.692;12.844;2023-01-29T07:09:56;17.20;54.50
76878;DHT22;65843;50.692;12.844;2023-01-29T07:10:57;17.20;54.70
76878;DHT22;65843;50.692;12.844;2023-01-29T07:11:59;17.20;55.00
76878;DHT22;65843;50.692;12.844;2023-01-29T07:13:00;17.30;54.70
76878;DHT22;65843;50.692;12.844;2023-01-29T07:14:01;17.30;54.70
76878;DHT22;65843;50.692;12.844;2023-01-29T07:15:02;17.30;54.60
76878;DHT22;65843;50.692;12.844;2023-01-29T07:16:03;17.30;54.50
76878;DHT22;65843;50.692;12.844;2023-01-29T07:17:05;17.30;54.70
76878;DHT22;65843;50.692;12.844;2023-01-29T07:18:06;17.30;54.70
76878;DHT22;65843;50.692;12.844;2023-01-29T07:19:11;17.20;55.00
76878;DHT22;65843;50.692;12.844;2023-01-29T07:20:12;17.20;54.90